sensor_id;sensor_type;location;lat;lon;timestamp;P1;durP1;ratioP1;P2;durP2;ratioP2
2706;SDS011;7819;48.046;7.642;2022-12-01T00:00:46;15.20;;;11.47;;
2706;SDS011;7819;48.046;7.642;2022-12-01T00:03:11;13.57;;;10.27;;
2706;SDS011;7819;48.046;7.642;2022-12-01T00:05:36;13.07;;;9.30;;
2706;SDS011;7819;48.046;7.642;2022-12-01T00:08:02;16.90;;;13.00;;
2706;SDS011;7819;48.046;7.642;2022-12-01T00:10:29;20.03;;;15.70;;
2706;SDS011;7819;48.046;7.642;2022-12-01T00:12:55;20.40;;;12.87;;
2706;SDS011;7819;48.046;7.642;2022-12-01T00:15:20;21.50;;;12.77;;
2706;SDS011;7819;48.046;7.642;2022-12-01T00:17:46;17.73;;;12.40;;
2706;SDS011;7819;48.046;7.642;2022-12-01T00:20:11;18.80;;;12.87;;
2706;SDS011;7819;48.046;7.642;2022-12-01T00:22:37;18.03;;;12.67;;
2706;SDS011;7819;48.046;7.642;2022-12-01T00:25:02;15.63;;;10.67;;
2706;SDS011;7819;48.046;7.642;2022-12-01T00:27:28;16.73;;;10.70;;
2706;SDS011;7819;48.046;7.642;2022-12-01T00:29:53;13.77;;;10.00;;
2706;SDS011;7819;48.046;7.642;2022-12-01T00:32:18;16.17;;;11.03;;
2706;SDS011;7819;48.046;7.642;2022-12-01T00:34:44;15.90;;;10.60;;
2706;SDS011;7819;48.046;7.642;2022-12-01T00:37:09;16.90;;;11.30;;
2706;SDS011;7819;48.046;7.642;2022-12-01T00:39:34;16.80;;;11.27;;
2706;SDS011;7819;48.046;7.642;2022-12-01T00:41:59;19.23;;;11.00;;
2706;SDS011;7819;48.046;7.642;2022-12-01T00:44:24;12.77;;;9.83;;
2706;SDS011;7819;48.046;7.642;2022-12-01T00:46:50;17.27;;;11.87;;
2706;SDS011;7819;48.046;7.642;2022-12-01T00:49:15;16.30;;;11.07;;
2706;SDS011;7819;48.046;7.642;2022-12-01T00:51:40;13.53;;;10.40;;
2706;SDS011;7819;48.046;7.642;2022-12-01T00:54:05;15.20;;;10.70;;
2706;SDS011;7819;48.046;7.642;2022-12-01T00:56:30;15.53;;;10.20;;
2706;SDS011;7819;48.046;7.642;2022-12-01T00:58:56;13.27;;;10.00;;
2706;SDS011;7819;48.046;7.642;2022-12-01T01:01:21;13.00;;;9.83;;
2706;SDS011;7819;48.046;7.642;2022-12-01T01:03:46;15.23;;;9.47;;
2706;SDS011;7819;48.046;7.642;2022-12-01T01:06:11;18.50;;;10.57;;
2706;SDS011;7819;48.046;7.642;2022-12-01T01:08:37;16.57;;;10.43;;
2706;SDS011;7819;48.046;7.642;2022-12-01T01:11:03;13.13;;;10.03;;
2706;SDS011;7819;48.046;7.642;2022-12-01T01:13:28;16.23;;;10.10;;
2706;SDS011;7819;48.046;7.642;2022-12-01T01:16:01;14.57;;;9.77;;
2706;SDS011;7819;48.046;7.642;2022-12-01T01:18:27;12.17;;;9.33;;
2706;SDS011;7819;48.046;7.642;2022-12-01T01:20:56;11.90;;;8.90;;
2706;SDS011;7819;48.046;7.642;2022-12-01T01:23:21;13.87;;;9.50;;
2706;SDS011;7819;48.046;7.642;2022-12-01T01:25:46;11.33;;;8.30;;
2706;SDS011;7819;48.046;7.642;2022-12-01T01:28:11;11.70;;;8.33;;
2706;SDS011;7819;48.046;7.642;2022-12-01T01:30:39;11.60;;;8.20;;
2706;SDS011;7819;48.046;7.642;2022-12-01T01:33:05;10.73;;;8.07;;
2706;SDS011;7819;48.046;7.642;2022-12-01T01:35:30;11.63;;;8.40;;
2706;SDS011;7819;48.046;7.642;2022-12-01T01:37:55;10.30;;;6.80;;
2706;SDS011;7819;48.046;7.642;2022-12-01T01:40:20;9.83;;;6.50;;
2706;SDS011;7819;48.046;7.642;2022-12-01T01:42:45;13.70;;;7.27;;
2706;SDS011;7819;48.046;7.642;2022-12-01T01:45:24;15.20;;;6.80;;
2706;SDS011;7819;48.046;7.642;2022-12-01T01:47:51;13.27;;;7.10;;
2706;SDS011;7819;48.046;7.642;2022-12-01T01:50:17;11.80;;;7.10;;
2706;SDS011;7819;48.046;7.642;2022-12-01T01:52:45;11.30;;;7.30;;
2706;SDS011;7819;48.046;7.642;2022-12-01T01:55:12;12.17;;;8.43;;
2706;SDS011;7819;48.046;7.642;2022-12-01T01:57:38;13.87;;;8.50;;
2706;SDS011;7819;48.046;7.642;2022-12-01T02:00:05;12.77;;;8.40;;
2706;SDS011;7819;48.046;7.642;2022-12-01T02:02:36;11.07;;;7.13;;
2706;SDS011;7819;48.046;7.642;2022-12-01T02:05:08;11.63;;;7.83;;
2706;SDS011;7819;48.046;7.642;2022-12-01T02:07:36;10.73;;;7.53;;
2706;SDS011;7819;48.046;7.642;2022-12-01T02:10:02;15.33;;;8.73;;
2706;SDS011;7819;48.046;7.642;2022-12-01T02:12:47;16.77;;;7.27;;
2706;SDS011;7819;48.046;7.642;2022-12-01T02:15:21;10.90;;;7.07;;
2706;SDS011;7819;48.046;7.642;2022-12-01T02:33:16;14.73;;;8.53;;
2706;SDS011;7819;48.046;7.642;2022-12-01T02:38:18;13.23;;;7.90;;
2706;SDS011;7819;48.046;7.642;2022-12-01T02:43:24;17.17;;;8.30;;
2706;SDS011;7819;48.046;7.642;2022-12-01T02:48:26;16.07;;;9.20;;
2706;SDS011;7819;48.046;7.642;2022-12-01T02:50:52;13.00;;;7.97;;
2706;SDS011;7819;48.046;7.642;2022-12-01T02:53:18;13.90;;;9.27;;
2706;SDS011;7819;48.046;7.642;2022-12-01T02:55:47;19.17;;;9.40;;
2706;SDS011;7819;48.046;7.642;2022-12-01T02:58:13;17.03;;;10.27;;
2706;SDS011;7819;48.046;7.642;2022-12-01T03:00:38;15.20;;;9.17;;
2706;SDS011;7819;48.046;7.642;2022-12-01T03:08:05;16.23;;;10.60;;
2706;SDS011;7819;48.046;7.642;2022-12-01T03:10:47;17.03;;;9.33;;
2706;SDS011;7819;48.046;7.642;2022-12-01T03:16:01;17.10;;;10.20;;
2706;SDS011;7819;48.046;7.642;2022-12-01T03:18:34;15.00;;;9.70;;
2706;SDS011;7819;48.046;7.642;2022-12-01T03:23:30;18.47;;;10.67;;
2706;SDS011;7819;48.046;7.642;2022-12-01T03:25:55;14.33;;;8.60;;
2706;SDS011;7819;48.046;7.642;2022-12-01T03:28:24;18.87;;;9.93;;
2706;SDS011;7819;48.046;7.642;2022-12-01T03:30:53;13.70;;;9.90;;
2706;SDS011;7819;48.046;7.642;2022-12-01T03:33:21;21.13;;;10.80;;
2706;SDS011;7819;48.046;7.642;2022-12-01T03:35:49;17.97;;;8.47;;
2706;SDS011;7819;48.046;7.642;2022-12-01T03:38:25;19.80;;;10.50;;
2706;SDS011;7819;48.046;7.642;2022-12-01T03:40:52;19.13;;;9.97;;
2706;SDS011;7819;48.046;7.642;2022-12-01T03:43:21;21.40;;;10.60;;
2706;SDS011;7819;48.046;7.642;2022-12-01T03:48:12;15.98;;;10.57;;
2706;SDS011;7819;48.046;7.642;2022-12-01T03:50:44;13.63;;;10.00;;
2706;SDS011;7819;48.046;7.642;2022-12-01T03:53:17;15.90;;;9.23;;
2706;SDS011;7819;48.046;7.642;2022-12-01T03:55:44;14.97;;;9.27;;
2706;SDS011;7819;48.046;7.642;2022-12-01T03:58:17;15.53;;;8.37;;
2706;SDS011;7819;48.046;7.642;2022-12-01T04:00:44;16.40;;;9.63;;
2706;SDS011;7819;48.046;7.642;2022-12-01T04:03:17;12.50;;;9.03;;
2706;SDS011;7819;48.046;7.642;2022-12-01T04:05:42;16.87;;;9.27;;
2706;SDS011;7819;48.046;7.642;2022-12-01T04:08:08;10.60;;;7.60;;
2706;SDS011;7819;48.046;7.642;2022-12-01T04:10:33;15.77;;;9.17;;
2706;SDS011;7819;48.046;7.642;2022-12-01T04:12:58;11.87;;;7.50;;
2706;SDS011;7819;48.046;7.642;2022-12-01T04:15:24;16.90;;;9.60;;
2706;SDS011;7819;48.046;7.642;2022-12-01T04:17:49;17.13;;;9.80;;
2706;SDS011;7819;48.046;7.642;2022-12-01T04:20:15;12.57;;;7.43;;
2706;SDS011;7819;48.046;7.642;2022-12-01T04:22:40;13.13;;;7.37;;
2706;SDS011;7819;48.046;7.642;2022-12-01T04:25:06;14.67;;;7.80;;
2706;SDS011;7819;48.046;7.642;2022-12-01T04:27:31;13.43;;;7.73;;
2706;SDS011;7819;48.046;7.642;2022-12-01T04:29:57;17.00;;;7.60;;
2706;SDS011;7819;48.046;7.642;2022-12-01T04:32:22;12.07;;;7.90;;
2706;SDS011;7819;48.046;7.642;2022-12-01T04:34:47;10.07;;;7.37;;
2706;SDS011;7819;48.046;7.642;2022-12-01T04:37:12;13.80;;;8.87;;
2706;SDS011;7819;48.046;7.642;2022-12-01T04:39:38;14.07;;;7.17;;
2706;SDS011;7819;48.046;7.642;2022-12-01T04:42:03;11.33;;;7.57;;
2706;SDS011;7819;48.046;7.642;2022-12-01T04:44:28;9.07;;;5.83;;
2706;SDS011;7819;48.046;7.642;2022-12-01T04:46:54;12.63;;;8.43;;
2706;SDS011;7819;48.046;7.642;2022-12-01T04:49:19;15.00;;;8.60;;
2706;SDS011;7819;48.046;7.642;2022-12-01T04:51:45;10.93;;;6.70;;
2706;SDS011;7819;48.046;7.642;2022-12-01T04:54:10;14.83;;;7.90;;
2706;SDS011;7819;48.046;7.642;2022-12-01T04:56:36;13.73;;;8.80;;
2706;SDS011;7819;48.046;7.642;2022-12-01T04:59:01;14.43;;;7.60;;
2706;SDS011;7819;48.046;7.642;2022-12-01T05:01:26;13.47;;;8.17;;
2706;SDS011;7819;48.046;7.642;2022-12-01T05:03:52;15.13;;;8.93;;
2706;SDS011;7819;48.046;7.642;2022-12-01T05:06:18;12.73;;;8.53;;
2706;SDS011;7819;48.046;7.642;2022-12-01T05:08:43;12.40;;;8.03;;
2706;SDS011;7819;48.046;7.642;2022-12-01T05:11:09;12.10;;;8.17;;
2706;SDS011;7819;48.046;7.642;2022-12-01T05:13:39;13.57;;;8.00;;
2706;SDS011;7819;48.046;7.642;2022-12-01T05:16:05;12.93;;;7.93;;
2706;SDS011;7819;48.046;7.642;2022-12-01T05:18:31;16.90;;;8.43;;
2706;SDS011;7819;48.046;7.642;2022-12-01T05:20:56;13.80;;;8.50;;
2706;SDS011;7819;48.046;7.642;2022-12-01T05:23:22;13.37;;;8.17;;
2706;SDS011;7819;48.046;7.642;2022-12-01T05:25:47;13.33;;;9.03;;
2706;SDS011;7819;48.046;7.642;2022-12-01T05:28:12;15.93;;;8.07;;
2706;SDS011;7819;48.046;7.642;2022-12-01T05:30:37;13.93;;;7.30;;
2706;SDS011;7819;48.046;7.642;2022-12-01T05:33:03;13.83;;;8.13;;
2706;SDS011;7819;48.046;7.642;2022-12-01T05:35:28;11.37;;;8.30;;
2706;SDS011;7819;48.046;7.642;2022-12-01T05:37:53;13.50;;;8.67;;
2706;SDS011;7819;48.046;7.642;2022-12-01T05:40:18;12.00;;;7.40;;
2706;SDS011;7819;48.046;7.642;2022-12-01T05:42:43;14.13;;;8.00;;
2706;SDS011;7819;48.046;7.642;2022-12-01T05:45:09;11.00;;;7.13;;
2706;SDS011;7819;48.046;7.642;2022-12-01T05:47:34;16.00;;;8.47;;
2706;SDS011;7819;48.046;7.642;2022-12-01T05:49:59;14.50;;;8.10;;
2706;SDS011;7819;48.046;7.642;2022-12-01T05:52:24;12.83;;;8.37;;
2706;SDS011;7819;48.046;7.642;2022-12-01T05:54:49;12.13;;;6.73;;
2706;SDS011;7819;48.046;7.642;2022-12-01T05:57:15;11.37;;;8.00;;
2706;SDS011;7819;48.046;7.642;2022-12-01T05:59:40;15.37;;;8.60;;
2706;SDS011;7819;48.046;7.642;2022-12-01T06:02:05;12.17;;;7.90;;
2706;SDS011;7819;48.046;7.642;2022-12-01T06:04:30;14.03;;;7.90;;
2706;SDS011;7819;48.046;7.642;2022-12-01T06:06:55;13.63;;;7.97;;
2706;SDS011;7819;48.046;7.642;2022-12-01T06:09:21;12.80;;;8.27;;
2706;SDS011;7819;48.046;7.642;2022-12-01T06:11:46;12.37;;;7.70;;
2706;SDS011;7819;48.046;7.642;2022-12-01T06:14:11;12.10;;;7.33;;
2706;SDS011;7819;48.046;7.642;2022-12-01T06:16:36;12.03;;;7.57;;
2706;SDS011;7819;48.046;7.642;2022-12-01T06:19:01;13.40;;;7.53;;
2706;SDS011;7819;48.046;7.642;2022-12-01T06:21:26;14.13;;;7.53;;
2706;SDS011;7819;48.046;7.642;2022-12-01T06:23:52;13.73;;;8.10;;
2706;SDS011;7819;48.046;7.642;2022-12-01T06:26:17;13.60;;;10.17;;
2706;SDS011;7819;48.046;7.642;2022-12-01T06:28:42;18.20;;;7.43;;
2706;SDS011;7819;48.046;7.642;2022-12-01T06:31:07;14.93;;;9.17;;
2706;SDS011;7819;48.046;7.642;2022-12-01T06:33:32;15.83;;;9.07;;
2706;SDS011;7819;48.046;7.642;2022-12-01T06:35:58;13.63;;;8.50;;
2706;SDS011;7819;48.046;7.642;2022-12-01T06:38:23;18.00;;;11.13;;
2706;SDS011;7819;48.046;7.642;2022-12-01T06:40:49;14.00;;;9.67;;
2706;SDS011;7819;48.046;7.642;2022-12-01T06:43:14;16.17;;;10.17;;
2706;SDS011;7819;48.046;7.642;2022-12-01T06:45:39;13.17;;;8.43;;
2706;SDS011;7819;48.046;7.642;2022-12-01T06:48:04;13.13;;;8.77;;
2706;SDS011;7819;48.046;7.642;2022-12-01T06:50:30;12.73;;;8.00;;
2706;SDS011;7819;48.046;7.642;2022-12-01T06:52:55;13.87;;;8.27;;
2706;SDS011;7819;48.046;7.642;2022-12-01T06:55:21;20.50;;;10.47;;
2706;SDS011;7819;48.046;7.642;2022-12-01T06:57:46;13.97;;;8.90;;
2706;SDS011;7819;48.046;7.642;2022-12-01T07:00:11;14.93;;;8.30;;
2706;SDS011;7819;48.046;7.642;2022-12-01T07:02:37;13.90;;;8.50;;
2706;SDS011;7819;48.046;7.642;2022-12-01T07:05:03;10.13;;;7.20;;
2706;SDS011;7819;48.046;7.642;2022-12-01T07:07:28;13.70;;;8.30;;
2706;SDS011;7819;48.046;7.642;2022-12-01T07:09:53;14.90;;;8.40;;
2706;SDS011;7819;48.046;7.642;2022-12-01T07:12:18;11.20;;;7.37;;
2706;SDS011;7819;48.046;7.642;2022-12-01T07:14:43;16.83;;;8.53;;
2706;SDS011;7819;48.046;7.642;2022-12-01T07:17:09;12.40;;;7.80;;
2706;SDS011;7819;48.046;7.642;2022-12-01T07:19:34;13.37;;;8.67;;
2706;SDS011;7819;48.046;7.642;2022-12-01T07:21:59;15.63;;;8.93;;
2706;SDS011;7819;48.046;7.642;2022-12-01T07:24:24;13.50;;;8.07;;
2706;SDS011;7819;48.046;7.642;2022-12-01T07:26:50;14.10;;;8.73;;
2706;SDS011;7819;48.046;7.642;2022-12-01T07:29:15;13.67;;;8.87;;
2706;SDS011;7819;48.046;7.642;2022-12-01T07:31:40;14.10;;;9.47;;
2706;SDS011;7819;48.046;7.642;2022-12-01T07:34:05;13.80;;;8.33;;
2706;SDS011;7819;48.046;7.642;2022-12-01T07:36:30;16.60;;;8.50;;
2706;SDS011;7819;48.046;7.642;2022-12-01T07:38:56;16.63;;;9.50;;
2706;SDS011;7819;48.046;7.642;2022-12-01T07:41:21;16.27;;;9.40;;
2706;SDS011;7819;48.046;7.642;2022-12-01T07:43:46;15.30;;;9.33;;
2706;SDS011;7819;48.046;7.642;2022-12-01T07:46:16;15.47;;;8.83;;
2706;SDS011;7819;48.046;7.642;2022-12-01T07:48:41;16.57;;;8.53;;
2706;SDS011;7819;48.046;7.642;2022-12-01T07:51:08;17.60;;;9.60;;
2706;SDS011;7819;48.046;7.642;2022-12-01T07:53:34;13.70;;;8.63;;
2706;SDS011;7819;48.046;7.642;2022-12-01T07:55:59;13.83;;;7.80;;
2706;SDS011;7819;48.046;7.642;2022-12-01T07:58:24;11.97;;;7.93;;
2706;SDS011;7819;48.046;7.642;2022-12-01T08:00:50;14.73;;;8.43;;
2706;SDS011;7819;48.046;7.642;2022-12-01T08:03:15;15.20;;;8.50;;
2706;SDS011;7819;48.046;7.642;2022-12-01T08:05:40;16.63;;;9.40;;
2706;SDS011;7819;48.046;7.642;2022-12-01T08:08:06;10.90;;;7.73;;
2706;SDS011;7819;48.046;7.642;2022-12-01T08:10:31;14.43;;;8.87;;
2706;SDS011;7819;48.046;7.642;2022-12-01T08:12:56;18.13;;;10.60;;
2706;SDS011;7819;48.046;7.642;2022-12-01T08:15:21;13.70;;;9.13;;
2706;SDS011;7819;48.046;7.642;2022-12-01T08:17:46;16.50;;;10.77;;
2706;SDS011;7819;48.046;7.642;2022-12-01T08:20:12;13.67;;;9.40;;
2706;SDS011;7819;48.046;7.642;2022-12-01T08:22:37;15.20;;;9.47;;
2706;SDS011;7819;48.046;7.642;2022-12-01T08:25:02;20.20;;;10.10;;
2706;SDS011;7819;48.046;7.642;2022-12-01T08:27:27;14.40;;;10.20;;
2706;SDS011;7819;48.046;7.642;2022-12-01T08:29:52;14.73;;;8.97;;
2706;SDS011;7819;48.046;7.642;2022-12-01T08:32:18;23.20;;;12.47;;
2706;SDS011;7819;48.046;7.642;2022-12-01T08:34:43;18.10;;;11.37;;
2706;SDS011;7819;48.046;7.642;2022-12-01T08:37:08;16.87;;;9.90;;
2706;SDS011;7819;48.046;7.642;2022-12-01T08:39:33;15.43;;;9.70;;
2706;SDS011;7819;48.046;7.642;2022-12-01T08:41:58;15.37;;;9.70;;
2706;SDS011;7819;48.046;7.642;2022-12-01T08:44:24;14.30;;;9.37;;
2706;SDS011;7819;48.046;7.642;2022-12-01T08:46:49;20.63;;;10.60;;
2706;SDS011;7819;48.046;7.642;2022-12-01T08:49:14;19.37;;;11.33;;
2706;SDS011;7819;48.046;7.642;2022-12-01T08:51:40;14.80;;;10.40;;
2706;SDS011;7819;48.046;7.642;2022-12-01T08:54:05;17.03;;;10.70;;
2706;SDS011;7819;48.046;7.642;2022-12-01T08:56:34;16.23;;;10.30;;
2706;SDS011;7819;48.046;7.642;2022-12-01T08:59:00;14.67;;;9.80;;
2706;SDS011;7819;48.046;7.642;2022-12-01T09:01:25;15.50;;;9.60;;
2706;SDS011;7819;48.046;7.642;2022-12-01T09:03:51;19.33;;;10.67;;
2706;SDS011;7819;48.046;7.642;2022-12-01T09:06:29;15.57;;;10.00;;
2706;SDS011;7819;48.046;7.642;2022-12-01T09:08:54;15.40;;;10.13;;
2706;SDS011;7819;48.046;7.642;2022-12-01T09:11:19;17.50;;;10.43;;
2706;SDS011;7819;48.046;7.642;2022-12-01T09:13:45;17.53;;;9.87;;
2706;SDS011;7819;48.046;7.642;2022-12-01T09:16:12;15.70;;;9.40;;
2706;SDS011;7819;48.046;7.642;2022-12-01T09:18:46;15.77;;;10.13;;
2706;SDS011;7819;48.046;7.642;2022-12-01T09:21:13;15.47;;;9.27;;
2706;SDS011;7819;48.046;7.642;2022-12-01T09:23:38;16.60;;;10.37;;
2706;SDS011;7819;48.046;7.642;2022-12-01T09:26:04;15.20;;;9.43;;
2706;SDS011;7819;48.046;7.642;2022-12-01T09:28:29;16.23;;;10.73;;
2706;SDS011;7819;48.046;7.642;2022-12-01T09:30:54;16.90;;;12.20;;
2706;SDS011;7819;48.046;7.642;2022-12-01T09:33:20;16.60;;;9.67;;
2706;SDS011;7819;48.046;7.642;2022-12-01T09:35:45;15.73;;;9.67;;
2706;SDS011;7819;48.046;7.642;2022-12-01T09:38:10;16.27;;;9.90;;
2706;SDS011;7819;48.046;7.642;2022-12-01T09:40:39;16.03;;;11.10;;
2706;SDS011;7819;48.046;7.642;2022-12-01T09:43:12;16.47;;;10.40;;
2706;SDS011;7819;48.046;7.642;2022-12-01T09:45:40;15.83;;;10.23;;
2706;SDS011;7819;48.046;7.642;2022-12-01T09:48:08;16.50;;;10.40;;
2706;SDS011;7819;48.046;7.642;2022-12-01T09:50:35;15.60;;;9.57;;
2706;SDS011;7819;48.046;7.642;2022-12-01T09:53:10;15.13;;;9.53;;
2706;SDS011;7819;48.046;7.642;2022-12-01T09:55:39;20.20;;;10.90;;
2706;SDS011;7819;48.046;7.642;2022-12-01T09:58:04;17.87;;;10.80;;
2706;SDS011;7819;48.046;7.642;2022-12-01T10:00:39;16.80;;;9.73;;
2706;SDS011;7819;48.046;7.642;2022-12-01T10:03:16;17.27;;;9.80;;
2706;SDS011;7819;48.046;7.642;2022-12-01T10:05:50;16.87;;;10.23;;
2706;SDS011;7819;48.046;7.642;2022-12-01T10:08:20;16.30;;;10.50;;
2706;SDS011;7819;48.046;7.642;2022-12-01T10:10:47;14.93;;;10.03;;
2706;SDS011;7819;48.046;7.642;2022-12-01T10:13:22;22.70;;;11.30;;
2706;SDS011;7819;48.046;7.642;2022-12-01T10:23:47;21.50;;;12.80;;
2706;SDS011;7819;48.046;7.642;2022-12-01T10:34:36;16.30;;;9.00;;
2706;SDS011;7819;48.046;7.642;2022-12-01T10:36:41;18.23;;;11.20;;
2706;SDS011;7819;48.046;7.642;2022-12-01T10:39:09;15.93;;;10.43;;
2706;SDS011;7819;48.046;7.642;2022-12-01T10:41:39;19.83;;;11.30;;
2706;SDS011;7819;48.046;7.642;2022-12-01T10:44:04;14.83;;;9.10;;
2706;SDS011;7819;48.046;7.642;2022-12-01T10:48:59;16.80;;;10.65;;
2706;SDS011;7819;48.046;7.642;2022-12-01T10:51:25;19.37;;;10.37;;
2706;SDS011;7819;48.046;7.642;2022-12-01T10:53:56;16.50;;;11.50;;
2706;SDS011;7819;48.046;7.642;2022-12-01T10:56:22;17.90;;;11.80;;
2706;SDS011;7819;48.046;7.642;2022-12-01T10:58:51;15.00;;;8.90;;
2706;SDS011;7819;48.046;7.642;2022-12-01T11:01:24;18.30;;;9.77;;
2706;SDS011;7819;48.046;7.642;2022-12-01T11:03:56;18.00;;;10.00;;
2706;SDS011;7819;48.046;7.642;2022-12-01T11:06:23;14.30;;;9.30;;
2706;SDS011;7819;48.046;7.642;2022-12-01T11:08:54;14.57;;;9.77;;
2706;SDS011;7819;48.046;7.642;2022-12-01T11:11:24;15.23;;;9.43;;
2706;SDS011;7819;48.046;7.642;2022-12-01T11:13:49;17.13;;;11.33;;
2706;SDS011;7819;48.046;7.642;2022-12-01T11:16:32;16.77;;;9.97;;
2706;SDS011;7819;48.046;7.642;2022-12-01T11:19:59;15.50;;;10.07;;
2706;SDS011;7819;48.046;7.642;2022-12-01T11:21:56;15.03;;;9.37;;
2706;SDS011;7819;48.046;7.642;2022-12-01T11:24:29;22.30;;;10.90;;
2706;SDS011;7819;48.046;7.642;2022-12-01T11:26:56;15.17;;;9.67;;
2706;SDS011;7819;48.046;7.642;2022-12-01T11:29:35;19.50;;;10.70;;
2706;SDS011;7819;48.046;7.642;2022-12-01T11:32:10;19.33;;;13.43;;
2706;SDS011;7819;48.046;7.642;2022-12-01T11:34:37;21.27;;;11.43;;
2706;SDS011;7819;48.046;7.642;2022-12-01T11:37:04;17.67;;;10.60;;
2706;SDS011;7819;48.046;7.642;2022-12-01T11:39:40;19.10;;;11.77;;
2706;SDS011;7819;48.046;7.642;2022-12-01T11:47:35;17.50;;;10.10;;
2706;SDS011;7819;48.046;7.642;2022-12-01T11:50:24;14.50;;;10.03;;
2706;SDS011;7819;48.046;7.642;2022-12-01T11:52:50;16.90;;;9.97;;
2706;SDS011;7819;48.046;7.642;2022-12-01T11:57:45;16.10;;;9.53;;
2706;SDS011;7819;48.046;7.642;2022-12-01T12:00:12;15.47;;;9.40;;
2706;SDS011;7819;48.046;7.642;2022-12-01T12:03:00;16.73;;;11.67;;
2706;SDS011;7819;48.046;7.642;2022-12-01T12:05:44;16.80;;;10.83;;
2706;SDS011;7819;48.046;7.642;2022-12-01T12:10:49;13.10;;;9.57;;
2706;SDS011;7819;48.046;7.642;2022-12-01T12:21:33;13.77;;;9.60;;
2706;SDS011;7819;48.046;7.642;2022-12-01T12:26:35;16.17;;;9.73;;
2706;SDS011;7819;48.046;7.642;2022-12-01T12:38:56;12.50;;;9.10;;
2706;SDS011;7819;48.046;7.642;2022-12-01T12:51:46;14.33;;;8.40;;
2706;SDS011;7819;48.046;7.642;2022-12-01T12:56:59;14.20;;;8.07;;
2706;SDS011;7819;48.046;7.642;2022-12-01T12:59:38;15.53;;;9.60;;
2706;SDS011;7819;48.046;7.642;2022-12-01T13:04:41;18.20;;;10.33;;
2706;SDS011;7819;48.046;7.642;2022-12-01T13:09:55;14.80;;;9.43;;
2706;SDS011;7819;48.046;7.642;2022-12-01T13:12:34;17.67;;;10.20;;
2706;SDS011;7819;48.046;7.642;2022-12-01T13:17:28;13.60;;;8.80;;
2706;SDS011;7819;48.046;7.642;2022-12-01T13:19:55;18.10;;;10.00;;
2706;SDS011;7819;48.046;7.642;2022-12-01T13:22:28;16.83;;;10.00;;
2706;SDS011;7819;48.046;7.642;2022-12-01T13:24:53;15.87;;;9.03;;
2706;SDS011;7819;48.046;7.642;2022-12-01T13:27:19;13.70;;;9.07;;
2706;SDS011;7819;48.046;7.642;2022-12-01T13:29:47;11.27;;;8.43;;
2706;SDS011;7819;48.046;7.642;2022-12-01T13:32:33;17.93;;;10.30;;
2706;SDS011;7819;48.046;7.642;2022-12-01T13:35:00;18.60;;;9.73;;
2706;SDS011;7819;48.046;7.642;2022-12-01T13:37:36;14.23;;;9.73;;
2706;SDS011;7819;48.046;7.642;2022-12-01T13:42:32;36.13;;;22.13;;
2706;SDS011;7819;48.046;7.642;2022-12-01T13:44:59;19.00;;;11.47;;
2706;SDS011;7819;48.046;7.642;2022-12-01T13:47:29;18.67;;;14.27;;
2706;SDS011;7819;48.046;7.642;2022-12-01T13:49:55;38.50;;;28.20;;
2706;SDS011;7819;48.046;7.642;2022-12-01T13:57:39;100.97;;;65.90;;
2706;SDS011;7819;48.046;7.642;2022-12-01T14:08:12;33.03;;;24.40;;
2706;SDS011;7819;48.046;7.642;2022-12-01T14:10:38;23.47;;;16.93;;
2706;SDS011;7819;48.046;7.642;2022-12-01T14:13:03;27.10;;;19.67;;
2706;SDS011;7819;48.046;7.642;2022-12-01T14:17:59;16.40;;;11.90;;
2706;SDS011;7819;48.046;7.642;2022-12-01T14:20:25;17.97;;;13.77;;
2706;SDS011;7819;48.046;7.642;2022-12-01T14:23:01;18.87;;;13.10;;
2706;SDS011;7819;48.046;7.642;2022-12-01T14:25:27;18.07;;;12.13;;
2706;SDS011;7819;48.046;7.642;2022-12-01T14:27:59;20.67;;;11.50;;
2706;SDS011;7819;48.046;7.642;2022-12-01T14:35:49;17.53;;;10.93;;
2706;SDS011;7819;48.046;7.642;2022-12-01T14:38:14;16.30;;;11.67;;
2706;SDS011;7819;48.046;7.642;2022-12-01T14:40:39;17.07;;;12.07;;
2706;SDS011;7819;48.046;7.642;2022-12-01T14:43:05;22.37;;;12.77;;
2706;SDS011;7819;48.046;7.642;2022-12-01T14:46:10;16.43;;;12.20;;
2706;SDS011;7819;48.046;7.642;2022-12-01T14:48:39;20.07;;;12.43;;
2706;SDS011;7819;48.046;7.642;2022-12-01T14:53:40;16.50;;;11.07;;
2706;SDS011;7819;48.046;7.642;2022-12-01T14:56:09;16.07;;;11.33;;
2706;SDS011;7819;48.046;7.642;2022-12-01T14:58:35;16.67;;;10.93;;
2706;SDS011;7819;48.046;7.642;2022-12-01T15:01:07;17.13;;;12.07;;
2706;SDS011;7819;48.046;7.642;2022-12-01T15:06:01;19.60;;;13.37;;
2706;SDS011;7819;48.046;7.642;2022-12-01T15:08:27;18.40;;;12.67;;
2706;SDS011;7819;48.046;7.642;2022-12-01T15:10:54;17.83;;;12.83;;
2706;SDS011;7819;48.046;7.642;2022-12-01T15:15:51;17.10;;;11.13;;
2706;SDS011;7819;48.046;7.642;2022-12-01T15:18:25;19.20;;;11.33;;
2706;SDS011;7819;48.046;7.642;2022-12-01T15:20:54;14.10;;;9.47;;
2706;SDS011;7819;48.046;7.642;2022-12-01T15:23:20;16.23;;;9.83;;
2706;SDS011;7819;48.046;7.642;2022-12-01T15:25:46;15.67;;;8.50;;
2706;SDS011;7819;48.046;7.642;2022-12-01T15:30:36;16.45;;;9.63;;
2706;SDS011;7819;48.046;7.642;2022-12-01T15:33:01;14.20;;;9.47;;
2706;SDS011;7819;48.046;7.642;2022-12-01T15:35:27;17.10;;;9.73;;
2706;SDS011;7819;48.046;7.642;2022-12-01T15:37:52;14.17;;;10.17;;
2706;SDS011;7819;48.046;7.642;2022-12-01T15:40:19;19.27;;;10.60;;
2706;SDS011;7819;48.046;7.642;2022-12-01T15:42:53;14.87;;;10.23;;
2706;SDS011;7819;48.046;7.642;2022-12-01T15:45:23;14.67;;;9.30;;
2706;SDS011;7819;48.046;7.642;2022-12-01T15:47:51;16.27;;;9.30;;
2706;SDS011;7819;48.046;7.642;2022-12-01T15:52:49;14.50;;;10.03;;
2706;SDS011;7819;48.046;7.642;2022-12-01T15:55:20;16.30;;;9.67;;
2706;SDS011;7819;48.046;7.642;2022-12-01T15:57:47;17.33;;;9.80;;
2706;SDS011;7819;48.046;7.642;2022-12-01T16:00:17;18.97;;;12.60;;
2706;SDS011;7819;48.046;7.642;2022-12-01T16:02:42;16.83;;;9.57;;
2706;SDS011;7819;48.046;7.642;2022-12-01T16:07:33;14.00;;;9.17;;
2706;SDS011;7819;48.046;7.642;2022-12-01T16:09:59;16.57;;;9.53;;
2706;SDS011;7819;48.046;7.642;2022-12-01T16:12:28;17.10;;;10.07;;
2706;SDS011;7819;48.046;7.642;2022-12-01T16:17:24;17.87;;;10.00;;
2706;SDS011;7819;48.046;7.642;2022-12-01T16:20:13;13.80;;;9.43;;
2706;SDS011;7819;48.046;7.642;2022-12-01T16:22:38;16.10;;;10.50;;
2706;SDS011;7819;48.046;7.642;2022-12-01T16:25:14;15.40;;;9.90;;
2706;SDS011;7819;48.046;7.642;2022-12-01T16:27:40;15.23;;;9.77;;
2706;SDS011;7819;48.046;7.642;2022-12-01T16:30:17;18.53;;;11.30;;
2706;SDS011;7819;48.046;7.642;2022-12-01T16:32:42;18.73;;;11.03;;
2706;SDS011;7819;48.046;7.642;2022-12-01T16:35:20;18.93;;;10.40;;
2706;SDS011;7819;48.046;7.642;2022-12-01T16:37:46;61.00;;;43.23;;
2706;SDS011;7819;48.046;7.642;2022-12-01T16:40:12;66.50;;;53.30;;
2706;SDS011;7819;48.046;7.642;2022-12-01T16:42:37;120.27;;;86.50;;
2706;SDS011;7819;48.046;7.642;2022-12-01T16:45:03;63.57;;;47.57;;
2706;SDS011;7819;48.046;7.642;2022-12-01T16:47:28;28.97;;;23.73;;
2706;SDS011;7819;48.046;7.642;2022-12-01T16:49:55;29.60;;;23.20;;
2706;SDS011;7819;48.046;7.642;2022-12-01T16:52:20;16.60;;;14.63;;
2706;SDS011;7819;48.046;7.642;2022-12-01T16:54:46;16.60;;;11.37;;
2706;SDS011;7819;48.046;7.642;2022-12-01T16:57:12;19.10;;;12.63;;
2706;SDS011;7819;48.046;7.642;2022-12-01T16:59:37;26.40;;;13.00;;
2706;SDS011;7819;48.046;7.642;2022-12-01T17:02:02;17.00;;;11.00;;
2706;SDS011;7819;48.046;7.642;2022-12-01T17:04:27;17.43;;;12.70;;
2706;SDS011;7819;48.046;7.642;2022-12-01T17:06:53;18.07;;;12.60;;
2706;SDS011;7819;48.046;7.642;2022-12-01T17:09:18;19.23;;;13.17;;
2706;SDS011;7819;48.046;7.642;2022-12-01T17:11:43;23.20;;;12.90;;
2706;SDS011;7819;48.046;7.642;2022-12-01T17:14:09;25.03;;;16.07;;
2706;SDS011;7819;48.046;7.642;2022-12-01T17:16:34;17.07;;;14.40;;
2706;SDS011;7819;48.046;7.642;2022-12-01T17:19:00;21.57;;;17.90;;
2706;SDS011;7819;48.046;7.642;2022-12-01T17:21:25;31.43;;;25.47;;
2706;SDS011;7819;48.046;7.642;2022-12-01T17:23:51;37.13;;;29.13;;